<?xml version="1.0" encoding="UTF-8" standalone="no" ?>
<gpx xmlns="http://www.topografix.com/GPX/1/1" xmlns:xsi="http://www.w3.org/2001/XMLSchema-instance" xsi:schemaLocation="http://www.topografix.com/GPX/1/1 http://www.topografix.com/GPX/1/1/gpx.xsd" version="1.1" creator="VisuGPX - https://www.visugpx.com">
  <metadata>
    <name>2018-04-08 Trail de Saint Paulet- Aude</name>
    <desc><![CDATA[Trail de Saint Paulet, nouveau parcours au dessus du village de st Paulet dans le Lauragais. Parcours agréable, peu de difficultés .Paysage surement splendide en  par temps ensoleillé ]]></desc>
  </metadata>
  <trk>
    <name><![CDATA[2018-04-08 trail de St Paulet]]></name>
    <trkseg>
      <trkpt lat="43.40552" lon="1.8771">
        <ele>223.34</ele>
        <time>2018-04-08T07:33:19Z</time>
      </trkpt>
      <trkpt lat="43.4055" lon="1.87708">
        <ele>223.34</ele>
        <time>2018-04-08T07:33:20Z</time>
      </trkpt>
      <trkpt lat="43.40547" lon="1.87707">
        <ele>223.33</ele>
        <time>2018-04-08T07:33:21Z</time>
      </trkpt>
      <trkpt lat="43.40544" lon="1.87705">
        <ele>223.28</ele>
        <time>2018-04-08T07:33:22Z</time>
      </trkpt>
      <trkpt lat="43.40541" lon="1.87704">
        <ele>223.18</ele>
        <time>2018-04-08T07:33:23Z</time>
      </trkpt>
      <trkpt lat="43.40538" lon="1.87702">
        <ele>222.99</ele>
        <time>2018-04-08T07:33:24Z</time>
      </trkpt>
      <trkpt lat="43.40535" lon="1.87701">
        <ele>222.84</ele>
        <time>2018-04-08T07:33:25Z</time>
      </trkpt>
      <trkpt lat="43.40532" lon="1.877">
        <ele>222.63</ele>
        <time>2018-04-08T07:33:26Z</time>
      </trkpt>
      <trkpt lat="43.40529" lon="1.87699">
        <ele>222.47</ele>
        <time>2018-04-08T07:33:27Z</time>
      </trkpt>
      <trkpt lat="43.40526" lon="1.87698">
        <ele>222.32</ele>
        <time>2018-04-08T07:33:28Z</time>
      </trkpt>
      <trkpt lat="43.40487" lon="1.87696">
        <ele>220.4</ele>
        <time>2018-04-08T07:33:39Z</time>
      </trkpt>
      <trkpt lat="43.40453" lon="1.87687">
        <ele>218.17</ele>
        <time>2018-04-08T07:33:50Z</time>
      </trkpt>
      <trkpt lat="43.40418" lon="1.87662">
        <ele>215.7</ele>
        <time>2018-04-08T07:34:01Z</time>
      </trkpt>
      <trkpt lat="43.4038" lon="1.87633">
        <ele>213.48</ele>
        <time>2018-04-08T07:34:13Z</time>
      </trkpt>
      <trkpt lat="43.40339" lon="1.87617">
        <ele>212.46</ele>
        <time>2018-04-08T07:34:26Z</time>
      </trkpt>
      <trkpt lat="43.40302" lon="1.87603">
        <ele>211.62</ele>
        <time>2018-04-08T07:34:38Z</time>
      </trkpt>
      <trkpt lat="43.40266" lon="1.87588">
        <ele>211.63</ele>
        <time>2018-04-08T07:34:50Z</time>
      </trkpt>
      <trkpt lat="43.40242" lon="1.87575">
        <ele>211.87</ele>
        <time>2018-04-08T07:34:59Z</time>
      </trkpt>
      <trkpt lat="43.40217" lon="1.87572">
        <ele>211.18</ele>
        <time>2018-04-08T07:35:07Z</time>
      </trkpt>
      <trkpt lat="43.40215" lon="1.87575">
        <ele>211.35</ele>
        <time>2018-04-08T07:35:08Z</time>
      </trkpt>
      <trkpt lat="43.40213" lon="1.87578">
        <ele>211.54</ele>
        <time>2018-04-08T07:35:09Z</time>
      </trkpt>
      <trkpt lat="43.40187" lon="1.87619">
        <ele>210.36</ele>
        <time>2018-04-08T07:35:21Z</time>
      </trkpt>
      <trkpt lat="43.40163" lon="1.87662">
        <ele>210.92</ele>
        <time>2018-04-08T07:35:34Z</time>
      </trkpt>
      <trkpt lat="43.40132" lon="1.87685">
        <ele>210.59</ele>
        <time>2018-04-08T07:35:45Z</time>
      </trkpt>
      <trkpt lat="43.40117" lon="1.87691">
        <ele>209.86</ele>
        <time>2018-04-08T07:35:50Z</time>
      </trkpt>
      <trkpt lat="43.40106" lon="1.87683">
        <ele>208.91</ele>
        <time>2018-04-08T07:35:54Z</time>
      </trkpt>
      <trkpt lat="43.40071" lon="1.87665">
        <ele>206.07</ele>
        <time>2018-04-08T07:36:06Z</time>
      </trkpt>
      <trkpt lat="43.40049" lon="1.87675">
        <ele>204.37</ele>
        <time>2018-04-08T07:36:15Z</time>
      </trkpt>
      <trkpt lat="43.40043" lon="1.87678">
        <ele>204.17</ele>
        <time>2018-04-08T07:36:17Z</time>
      </trkpt>
      <trkpt lat="43.4004" lon="1.87678">
        <ele>204.06</ele>
        <time>2018-04-08T07:36:18Z</time>
      </trkpt>
      <trkpt lat="43.40037" lon="1.87678">
        <ele>203.93</ele>
        <time>2018-04-08T07:36:19Z</time>
      </trkpt>
      <trkpt lat="43.40034" lon="1.87678">
        <ele>203.8</ele>
        <time>2018-04-08T07:36:20Z</time>
      </trkpt>
      <trkpt lat="43.40032" lon="1.87678">
        <ele>203.67</ele>
        <time>2018-04-08T07:36:21Z</time>
      </trkpt>
      <trkpt lat="43.4" lon="1.87664">
        <ele>202.99</ele>
        <time>2018-04-08T07:36:31Z</time>
      </trkpt>
      <trkpt lat="43.39985" lon="1.87648">
        <ele>202.77</ele>
        <time>2018-04-08T07:36:38Z</time>
      </trkpt>
      <trkpt lat="43.39983" lon="1.87646">
        <ele>202.74</ele>
        <time>2018-04-08T07:36:39Z</time>
      </trkpt>
      <trkpt lat="43.39982" lon="1.87643">
        <ele>202.73</ele>
        <time>2018-04-08T07:36:40Z</time>
      </trkpt>
      <trkpt lat="43.39981" lon="1.87639">
        <ele>202.72</ele>
        <time>2018-04-08T07:36:41Z</time>
      </trkpt>
      <trkpt lat="43.3998" lon="1.87635">
        <ele>202.72</ele>
        <time>2018-04-08T07:36:42Z</time>
      </trkpt>
      <trkpt lat="43.39972" lon="1.87584">
        <ele>202.58</ele>
        <time>2018-04-08T07:36:53Z</time>
      </trkpt>
      <trkpt lat="43.39961" lon="1.87541">
        <ele>202.53</ele>
        <time>2018-04-08T07:37:04Z</time>
      </trkpt>
      <trkpt lat="43.39933" lon="1.87521">
        <ele>202.89</ele>
        <time>2018-04-08T07:37:15Z</time>
      </trkpt>
      <trkpt lat="43.39904" lon="1.87513">
        <ele>202.71</ele>
        <time>2018-04-08T07:37:25Z</time>
      </trkpt>
      <trkpt lat="43.39873" lon="1.87511">
        <ele>202.65</ele>
        <time>2018-04-08T07:37:34Z</time>
      </trkpt>
      <trkpt lat="43.39841" lon="1.87485">
        <ele>203.27</ele>
        <time>2018-04-08T07:37:45Z</time>
      </trkpt>
      <trkpt lat="43.3982" lon="1.87461">
        <ele>203.7</ele>
        <time>2018-04-08T07:37:55Z</time>
      </trkpt>
      <trkpt lat="43.39803" lon="1.87451">
        <ele>203.92</ele>
        <time>2018-04-08T07:38:02Z</time>
      </trkpt>
      <trkpt lat="43.39786" lon="1.87441">
        <ele>204.56</ele>
        <time>2018-04-08T07:38:08Z</time>
      </trkpt>
      <trkpt lat="43.39758" lon="1.87415">
        <ele>206.33</ele>
        <time>2018-04-08T07:38:19Z</time>
      </trkpt>
      <trkpt lat="43.3973" lon="1.87382">
        <ele>204.91</ele>
        <time>2018-04-08T07:38:30Z</time>
      </trkpt>
      <trkpt lat="43.3973" lon="1.87379">
        <ele>204.8</ele>
        <time>2018-04-08T07:38:31Z</time>
      </trkpt>
      <trkpt lat="43.3973" lon="1.87376">
        <ele>204.7</ele>
        <time>2018-04-08T07:38:32Z</time>
      </trkpt>
      <trkpt lat="43.39731" lon="1.87372">
        <ele>204.6</ele>
        <time>2018-04-08T07:38:33Z</time>
      </trkpt>
      <trkpt lat="43.39731" lon="1.87368">
        <ele>204.49</ele>
        <time>2018-04-08T07:38:34Z</time>
      </trkpt>
      <trkpt lat="43.39731" lon="1.87363">
        <ele>204.43</ele>
        <time>2018-04-08T07:38:35Z</time>
      </trkpt>
      <trkpt lat="43.39731" lon="1.87359">
        <ele>204.36</ele>
        <time>2018-04-08T07:38:36Z</time>
      </trkpt>
      <trkpt lat="43.39729" lon="1.87355">
        <ele>204.32</ele>
        <time>2018-04-08T07:38:37Z</time>
      </trkpt>
      <trkpt lat="43.39727" lon="1.87351">
        <ele>204.26</ele>
        <time>2018-04-08T07:38:38Z</time>
      </trkpt>
      <trkpt lat="43.39725" lon="1.87349">
        <ele>204.22</ele>
        <time>2018-04-08T07:38:39Z</time>
      </trkpt>
      <trkpt lat="43.39722" lon="1.87346">
        <ele>204.18</ele>
        <time>2018-04-08T07:38:40Z</time>
      </trkpt>
      <trkpt lat="43.39696" lon="1.87328">
        <ele>204.87</ele>
        <time>2018-04-08T07:38:51Z</time>
      </trkpt>
      <trkpt lat="43.39662" lon="1.87292">
        <ele>206.97</ele>
        <time>2018-04-08T07:39:04Z</time>
      </trkpt>
      <trkpt lat="43.39628" lon="1.87263">
        <ele>210.04</ele>
        <time>2018-04-08T07:39:18Z</time>
      </trkpt>
      <trkpt lat="43.39591" lon="1.87238">
        <ele>212.32</ele>
        <time>2018-04-08T07:39:32Z</time>
      </trkpt>
      <trkpt lat="43.39563" lon="1.8722">
        <ele>213.98</ele>
        <time>2018-04-08T07:39:43Z</time>
      </trkpt>
      <trkpt lat="43.39536" lon="1.87197">
        <ele>215.27</ele>
        <time>2018-04-08T07:39:55Z</time>
      </trkpt>
      <trkpt lat="43.39514" lon="1.87163">
        <ele>215.61</ele>
        <time>2018-04-08T07:40:07Z</time>
      </trkpt>
      <trkpt lat="43.39493" lon="1.87126">
        <ele>214.49</ele>
        <time>2018-04-08T07:40:19Z</time>
      </trkpt>
      <trkpt lat="43.39479" lon="1.87094">
        <ele>213.05</ele>
        <time>2018-04-08T07:40:28Z</time>
      </trkpt>
      <trkpt lat="43.3948" lon="1.87091">
        <ele>213.03</ele>
        <time>2018-04-08T07:40:29Z</time>
      </trkpt>
      <trkpt lat="43.39481" lon="1.87087">
        <ele>213.02</ele>
        <time>2018-04-08T07:40:30Z</time>
      </trkpt>
      <trkpt lat="43.39496" lon="1.87045">
        <ele>214.89</ele>
        <time>2018-04-08T07:40:42Z</time>
      </trkpt>
      <trkpt lat="43.39514" lon="1.8701">
        <ele>217.11</ele>
        <time>2018-04-08T07:40:53Z</time>
      </trkpt>
      <trkpt lat="43.39528" lon="1.8698">
        <ele>218.31</ele>
        <time>2018-04-08T07:41:03Z</time>
      </trkpt>
      <trkpt lat="43.39548" lon="1.8694">
        <ele>219.49</ele>
        <time>2018-04-08T07:41:15Z</time>
      </trkpt>
      <trkpt lat="43.39568" lon="1.869">
        <ele>221.64</ele>
        <time>2018-04-08T07:41:28Z</time>
      </trkpt>
      <trkpt lat="43.39578" lon="1.86848">
        <ele>223.82</ele>
        <time>2018-04-08T07:41:42Z</time>
      </trkpt>
      <trkpt lat="43.39583" lon="1.868">
        <ele>226.93</ele>
        <time>2018-04-08T07:41:56Z</time>
      </trkpt>
      <trkpt lat="43.39586" lon="1.86757">
        <ele>229.35</ele>
        <time>2018-04-08T07:42:09Z</time>
      </trkpt>
      <trkpt lat="43.39592" lon="1.86724">
        <ele>231.54</ele>
        <time>2018-04-08T07:42:20Z</time>
      </trkpt>
      <trkpt lat="43.39605" lon="1.86702">
        <ele>234.78</ele>
        <time>2018-04-08T07:42:31Z</time>
      </trkpt>
      <trkpt lat="43.39614" lon="1.86684">
        <ele>236.76</ele>
        <time>2018-04-08T07:42:39Z</time>
      </trkpt>
      <trkpt lat="43.39617" lon="1.86673">
        <ele>237.87</ele>
        <time>2018-04-08T07:42:44Z</time>
      </trkpt>
      <trkpt lat="43.39621" lon="1.86659">
        <ele>239.74</ele>
        <time>2018-04-08T07:42:51Z</time>
      </trkpt>
      <trkpt lat="43.39624" lon="1.86648">
        <ele>241.46</ele>
        <time>2018-04-08T07:42:56Z</time>
      </trkpt>
      <trkpt lat="43.39634" lon="1.86616">
        <ele>245.08</ele>
        <time>2018-04-08T07:43:09Z</time>
      </trkpt>
      <trkpt lat="43.39636" lon="1.86609">
        <ele>245.87</ele>
        <time>2018-04-08T07:43:12Z</time>
      </trkpt>
      <trkpt lat="43.39642" lon="1.86595">
        <ele>247.17</ele>
        <time>2018-04-08T07:43:18Z</time>
      </trkpt>
      <trkpt lat="43.39643" lon="1.86586">
        <ele>247.96</ele>
        <time>2018-04-08T07:43:21Z</time>
      </trkpt>
      <trkpt lat="43.39647" lon="1.86574">
        <ele>249</ele>
        <time>2018-04-08T07:43:26Z</time>
      </trkpt>
      <trkpt lat="43.39653" lon="1.86562">
        <ele>250.1</ele>
        <time>2018-04-08T07:43:31Z</time>
      </trkpt>
      <trkpt lat="43.39666" lon="1.8654">
        <ele>252.12</ele>
        <time>2018-04-08T07:43:42Z</time>
      </trkpt>
      <trkpt lat="43.39677" lon="1.86529">
        <ele>254.02</ele>
        <time>2018-04-08T07:43:48Z</time>
      </trkpt>
      <trkpt lat="43.39688" lon="1.86514">
        <ele>255.24</ele>
        <time>2018-04-08T07:43:55Z</time>
      </trkpt>
      <trkpt lat="43.39689" lon="1.86513">
        <ele>255.38</ele>
        <time>2018-04-08T07:43:56Z</time>
      </trkpt>
      <trkpt lat="43.39697" lon="1.86503">
        <ele>256.15</ele>
        <time>2018-04-08T07:44:02Z</time>
      </trkpt>
      <trkpt lat="43.39707" lon="1.86485">
        <ele>259.62</ele>
        <time>2018-04-08T07:44:13Z</time>
      </trkpt>
      <trkpt lat="43.39724" lon="1.86471">
        <ele>262.89</ele>
        <time>2018-04-08T07:44:22Z</time>
      </trkpt>
      <trkpt lat="43.39738" lon="1.86453">
        <ele>266</ele>
        <time>2018-04-08T07:44:31Z</time>
      </trkpt>
      <trkpt lat="43.39744" lon="1.86435">
        <ele>268.16</ele>
        <time>2018-04-08T07:44:37Z</time>
      </trkpt>
      <trkpt lat="43.39753" lon="1.86432">
        <ele>269.14</ele>
        <time>2018-04-08T07:44:41Z</time>
      </trkpt>
      <trkpt lat="43.39756" lon="1.86433">
        <ele>269.22</ele>
        <time>2018-04-08T07:44:42Z</time>
      </trkpt>
      <trkpt lat="43.39758" lon="1.86435">
        <ele>269.31</ele>
        <time>2018-04-08T07:44:43Z</time>
      </trkpt>
      <trkpt lat="43.3976" lon="1.86437">
        <ele>269.4</ele>
        <time>2018-04-08T07:44:44Z</time>
      </trkpt>
      <trkpt lat="43.39763" lon="1.86439">
        <ele>269.47</ele>
        <time>2018-04-08T07:44:45Z</time>
      </trkpt>
      <trkpt lat="43.39766" lon="1.8644">
        <ele>269.53</ele>
        <time>2018-04-08T07:44:46Z</time>
      </trkpt>
      <trkpt lat="43.39769" lon="1.86442">
        <ele>269.56</ele>
        <time>2018-04-08T07:44:47Z</time>
      </trkpt>
      <trkpt lat="43.39773" lon="1.86443">
        <ele>269.59</ele>
        <time>2018-04-08T07:44:48Z</time>
      </trkpt>
      <trkpt lat="43.39804" lon="1.86471">
        <ele>268.99</ele>
        <time>2018-04-08T07:45:01Z</time>
      </trkpt>
      <trkpt lat="43.39844" lon="1.86501">
        <ele>269.33</ele>
        <time>2018-04-08T07:45:17Z</time>
      </trkpt>
      <trkpt lat="43.39879" lon="1.86531">
        <ele>269.32</ele>
        <time>2018-04-08T07:45:31Z</time>
      </trkpt>
      <trkpt lat="43.39918" lon="1.86569">
        <ele>270.25</ele>
        <time>2018-04-08T07:45:47Z</time>
      </trkpt>
      <trkpt lat="43.39945" lon="1.86599">
        <ele>271.4</ele>
        <time>2018-04-08T07:45:59Z</time>
      </trkpt>
      <trkpt lat="43.39969" lon="1.86626">
        <ele>272.38</ele>
        <time>2018-04-08T07:46:11Z</time>
      </trkpt>
      <trkpt lat="43.39999" lon="1.86663">
        <ele>273.65</ele>
        <time>2018-04-08T07:46:25Z</time>
      </trkpt>
      <trkpt lat="43.40025" lon="1.86696">
        <ele>270.45</ele>
        <time>2018-04-08T07:46:36Z</time>
      </trkpt>
      <trkpt lat="43.40056" lon="1.86737">
        <ele>268.88</ele>
        <time>2018-04-08T07:46:50Z</time>
      </trkpt>
      <trkpt lat="43.40085" lon="1.86779">
        <ele>268.44</ele>
        <time>2018-04-08T07:47:04Z</time>
      </trkpt>
      <trkpt lat="43.40112" lon="1.8682">
        <ele>268.36</ele>
        <time>2018-04-08T07:47:18Z</time>
      </trkpt>
      <trkpt lat="43.40136" lon="1.8685">
        <ele>269.18</ele>
        <time>2018-04-08T07:47:29Z</time>
      </trkpt>
      <trkpt lat="43.40165" lon="1.86892">
        <ele>268.43</ele>
        <time>2018-04-08T07:47:43Z</time>
      </trkpt>
      <trkpt lat="43.40194" lon="1.86927">
        <ele>267.71</ele>
        <time>2018-04-08T07:47:56Z</time>
      </trkpt>
      <trkpt lat="43.40205" lon="1.8694">
        <ele>268.22</ele>
        <time>2018-04-08T07:48:07Z</time>
      </trkpt>
      <trkpt lat="43.40207" lon="1.86942">
        <ele>268.41</ele>
        <time>2018-04-08T07:48:09Z</time>
      </trkpt>
      <trkpt lat="43.40209" lon="1.86943">
        <ele>268.52</ele>
        <time>2018-04-08T07:48:10Z</time>
      </trkpt>
      <trkpt lat="43.40211" lon="1.86945">
        <ele>268.57</ele>
        <time>2018-04-08T07:48:11Z</time>
      </trkpt>
      <trkpt lat="43.40214" lon="1.86946">
        <ele>268.61</ele>
        <time>2018-04-08T07:48:12Z</time>
      </trkpt>
      <trkpt lat="43.40217" lon="1.86948">
        <ele>268.7</ele>
        <time>2018-04-08T07:48:13Z</time>
      </trkpt>
      <trkpt lat="43.4025" lon="1.86973">
        <ele>270.79</ele>
        <time>2018-04-08T07:48:26Z</time>
      </trkpt>
      <trkpt lat="43.40282" lon="1.87002">
        <ele>270.73</ele>
        <time>2018-04-08T07:48:39Z</time>
      </trkpt>
      <trkpt lat="43.4032" lon="1.87024">
        <ele>270.2</ele>
        <time>2018-04-08T07:48:53Z</time>
      </trkpt>
      <trkpt lat="43.4036" lon="1.8704">
        <ele>271.34</ele>
        <time>2018-04-08T07:49:08Z</time>
      </trkpt>
      <trkpt lat="43.40389" lon="1.87052">
        <ele>272.38</ele>
        <time>2018-04-08T07:49:18Z</time>
      </trkpt>
      <trkpt lat="43.40394" lon="1.87054">
        <ele>272.4</ele>
        <time>2018-04-08T07:49:20Z</time>
      </trkpt>
      <trkpt lat="43.40435" lon="1.87071">
        <ele>272.51</ele>
        <time>2018-04-08T07:49:35Z</time>
      </trkpt>
      <trkpt lat="43.40475" lon="1.87082">
        <ele>274.02</ele>
        <time>2018-04-08T07:49:50Z</time>
      </trkpt>
      <trkpt lat="43.40513" lon="1.87103">
        <ele>276.09</ele>
        <time>2018-04-08T07:50:05Z</time>
      </trkpt>
      <trkpt lat="43.4055" lon="1.87123">
        <ele>276.75</ele>
        <time>2018-04-08T07:50:19Z</time>
      </trkpt>
      <trkpt lat="43.40585" lon="1.8714">
        <ele>276.45</ele>
        <time>2018-04-08T07:50:32Z</time>
      </trkpt>
      <trkpt lat="43.40619" lon="1.87157">
        <ele>276.7</ele>
        <time>2018-04-08T07:50:44Z</time>
      </trkpt>
      <trkpt lat="43.40633" lon="1.87189">
        <ele>276.31</ele>
        <time>2018-04-08T07:50:54Z</time>
      </trkpt>
      <trkpt lat="43.40648" lon="1.87234">
        <ele>277.4</ele>
        <time>2018-04-08T07:51:06Z</time>
      </trkpt>
      <trkpt lat="43.40676" lon="1.87265">
        <ele>277.97</ele>
        <time>2018-04-08T07:51:19Z</time>
      </trkpt>
      <trkpt lat="43.40721" lon="1.873">
        <ele>279.04</ele>
        <time>2018-04-08T07:51:37Z</time>
      </trkpt>
      <trkpt lat="43.40752" lon="1.87326">
        <ele>279.05</ele>
        <time>2018-04-08T07:51:50Z</time>
      </trkpt>
      <trkpt lat="43.4078" lon="1.87366">
        <ele>278.56</ele>
        <time>2018-04-08T07:52:05Z</time>
      </trkpt>
      <trkpt lat="43.40783" lon="1.87412">
        <ele>278.48</ele>
        <time>2018-04-08T07:52:18Z</time>
      </trkpt>
      <trkpt lat="43.40782" lon="1.87415">
        <ele>278.49</ele>
        <time>2018-04-08T07:52:19Z</time>
      </trkpt>
      <trkpt lat="43.40782" lon="1.87418">
        <ele>278.5</ele>
        <time>2018-04-08T07:52:20Z</time>
      </trkpt>
      <trkpt lat="43.40781" lon="1.87421">
        <ele>278.51</ele>
        <time>2018-04-08T07:52:21Z</time>
      </trkpt>
      <trkpt lat="43.40781" lon="1.87425">
        <ele>278.53</ele>
        <time>2018-04-08T07:52:22Z</time>
      </trkpt>
      <trkpt lat="43.40781" lon="1.87428">
        <ele>278.56</ele>
        <time>2018-04-08T07:52:23Z</time>
      </trkpt>
      <trkpt lat="43.4078" lon="1.87431">
        <ele>278.59</ele>
        <time>2018-04-08T07:52:24Z</time>
      </trkpt>
      <trkpt lat="43.4078" lon="1.87434">
        <ele>278.61</ele>
        <time>2018-04-08T07:52:25Z</time>
      </trkpt>
      <trkpt lat="43.40779" lon="1.87436">
        <ele>278.64</ele>
        <time>2018-04-08T07:52:26Z</time>
      </trkpt>
      <trkpt lat="43.40778" lon="1.87439">
        <ele>278.71</ele>
        <time>2018-04-08T07:52:27Z</time>
      </trkpt>
      <trkpt lat="43.40777" lon="1.87442">
        <ele>278.87</ele>
        <time>2018-04-08T07:52:28Z</time>
      </trkpt>
      <trkpt lat="43.40776" lon="1.87445">
        <ele>279.06</ele>
        <time>2018-04-08T07:52:29Z</time>
      </trkpt>
      <trkpt lat="43.40775" lon="1.87447">
        <ele>279.21</ele>
        <time>2018-04-08T07:52:30Z</time>
      </trkpt>
      <trkpt lat="43.40774" lon="1.8745">
        <ele>279.34</ele>
        <time>2018-04-08T07:52:31Z</time>
      </trkpt>
      <trkpt lat="43.40773" lon="1.87453">
        <ele>279.54</ele>
        <time>2018-04-08T07:52:32Z</time>
      </trkpt>
      <trkpt lat="43.40772" lon="1.87456">
        <ele>279.64</ele>
        <time>2018-04-08T07:52:33Z</time>
      </trkpt>
      <trkpt lat="43.40771" lon="1.87459">
        <ele>279.72</ele>
        <time>2018-04-08T07:52:34Z</time>
      </trkpt>
      <trkpt lat="43.4077" lon="1.87462">
        <ele>279.86</ele>
        <time>2018-04-08T07:52:35Z</time>
      </trkpt>
      <trkpt lat="43.40777" lon="1.87495">
        <ele>281.63</ele>
        <time>2018-04-08T07:52:45Z</time>
      </trkpt>
      <trkpt lat="43.40798" lon="1.87524">
        <ele>282.97</ele>
        <time>2018-04-08T07:52:55Z</time>
      </trkpt>
      <trkpt lat="43.40836" lon="1.87532">
        <ele>283.6</ele>
        <time>2018-04-08T07:53:09Z</time>
      </trkpt>
      <trkpt lat="43.40838" lon="1.87531">
        <ele>283.6</ele>
        <time>2018-04-08T07:53:10Z</time>
      </trkpt>
      <trkpt lat="43.40869" lon="1.87507">
        <ele>284.02</ele>
        <time>2018-04-08T07:53:23Z</time>
      </trkpt>
      <trkpt lat="43.40902" lon="1.87482">
        <ele>284.28</ele>
        <time>2018-04-08T07:53:37Z</time>
      </trkpt>
      <trkpt lat="43.40932" lon="1.8746">
        <ele>284.08</ele>
        <time>2018-04-08T07:53:49Z</time>
      </trkpt>
      <trkpt lat="43.40971" lon="1.87439">
        <ele>284.49</ele>
        <time>2018-04-08T07:54:02Z</time>
      </trkpt>
      <trkpt lat="43.41001" lon="1.87418">
        <ele>283.67</ele>
        <time>2018-04-08T07:54:13Z</time>
      </trkpt>
      <trkpt lat="43.41034" lon="1.87397">
        <ele>283.27</ele>
        <time>2018-04-08T07:54:25Z</time>
      </trkpt>
      <trkpt lat="43.41069" lon="1.8739">
        <ele>282.78</ele>
        <time>2018-04-08T07:54:35Z</time>
      </trkpt>
      <trkpt lat="43.41073" lon="1.87384">
        <ele>282.66</ele>
        <time>2018-04-08T07:54:37Z</time>
      </trkpt>
      <trkpt lat="43.41073" lon="1.8738">
        <ele>282.56</ele>
        <time>2018-04-08T07:54:38Z</time>
      </trkpt>
      <trkpt lat="43.41073" lon="1.87376">
        <ele>282.46</ele>
        <time>2018-04-08T07:54:39Z</time>
      </trkpt>
      <trkpt lat="43.41073" lon="1.87372">
        <ele>282.36</ele>
        <time>2018-04-08T07:54:40Z</time>
      </trkpt>
      <trkpt lat="43.41073" lon="1.87368">
        <ele>282.27</ele>
        <time>2018-04-08T07:54:41Z</time>
      </trkpt>
      <trkpt lat="43.41073" lon="1.87363">
        <ele>282.15</ele>
        <time>2018-04-08T07:54:42Z</time>
      </trkpt>
      <trkpt lat="43.41072" lon="1.87359">
        <ele>281.96</ele>
        <time>2018-04-08T07:54:43Z</time>
      </trkpt>
      <trkpt lat="43.41072" lon="1.87355">
        <ele>281.75</ele>
        <time>2018-04-08T07:54:44Z</time>
      </trkpt>
      <trkpt lat="43.41072" lon="1.8735">
        <ele>281.56</ele>
        <time>2018-04-08T07:54:45Z</time>
      </trkpt>
      <trkpt lat="43.41072" lon="1.87346">
        <ele>281.37</ele>
        <time>2018-04-08T07:54:46Z</time>
      </trkpt>
      <trkpt lat="43.41058" lon="1.87284">
        <ele>278.16</ele>
        <time>2018-04-08T07:55:00Z</time>
      </trkpt>
      <trkpt lat="43.41038" lon="1.87245">
        <ele>275.06</ele>
        <time>2018-04-08T07:55:11Z</time>
      </trkpt>
      <trkpt lat="43.41004" lon="1.87233">
        <ele>273.75</ele>
        <time>2018-04-08T07:55:23Z</time>
      </trkpt>
      <trkpt lat="43.4097" lon="1.87234">
        <ele>274.02</ele>
        <time>2018-04-08T07:55:34Z</time>
      </trkpt>
      <trkpt lat="43.40929" lon="1.87238">
        <ele>274.76</ele>
        <time>2018-04-08T07:55:48Z</time>
      </trkpt>
      <trkpt lat="43.4089" lon="1.87237">
        <ele>276.1</ele>
        <time>2018-04-08T07:56:01Z</time>
      </trkpt>
      <trkpt lat="43.40857" lon="1.87236">
        <ele>277.39</ele>
        <time>2018-04-08T07:56:13Z</time>
      </trkpt>
      <trkpt lat="43.40824" lon="1.87233">
        <ele>276.9</ele>
        <time>2018-04-08T07:56:24Z</time>
      </trkpt>
      <trkpt lat="43.40787" lon="1.87227">
        <ele>276.26</ele>
        <time>2018-04-08T07:56:36Z</time>
      </trkpt>
      <trkpt lat="43.40753" lon="1.87221">
        <ele>275.71</ele>
        <time>2018-04-08T07:56:47Z</time>
      </trkpt>
      <trkpt lat="43.40733" lon="1.87195">
        <ele>274.38</ele>
        <time>2018-04-08T07:56:57Z</time>
      </trkpt>
      <trkpt lat="43.40744" lon="1.87143">
        <ele>272.17</ele>
        <time>2018-04-08T07:57:10Z</time>
      </trkpt>
      <trkpt lat="43.40755" lon="1.87094">
        <ele>270.6</ele>
        <time>2018-04-08T07:57:21Z</time>
      </trkpt>
      <trkpt lat="43.40769" lon="1.87045">
        <ele>268.6</ele>
        <time>2018-04-08T07:57:33Z</time>
      </trkpt>
      <trkpt lat="43.40784" lon="1.86988">
        <ele>267.32</ele>
        <time>2018-04-08T07:57:45Z</time>
      </trkpt>
      <trkpt lat="43.40807" lon="1.86936">
        <ele>265.86</ele>
        <time>2018-04-08T07:57:57Z</time>
      </trkpt>
      <trkpt lat="43.40809" lon="1.86931">
        <ele>265.76</ele>
        <time>2018-04-08T07:57:58Z</time>
      </trkpt>
      <trkpt lat="43.40811" lon="1.86927">
        <ele>265.66</ele>
        <time>2018-04-08T07:57:59Z</time>
      </trkpt>
      <trkpt lat="43.40838" lon="1.86873">
        <ele>262.48</ele>
        <time>2018-04-08T07:58:12Z</time>
      </trkpt>
      <trkpt lat="43.40849" lon="1.86827">
        <ele>260.54</ele>
        <time>2018-04-08T07:58:24Z</time>
      </trkpt>
      <trkpt lat="43.4086" lon="1.86781">
        <ele>260.15</ele>
        <time>2018-04-08T07:58:36Z</time>
      </trkpt>
      <trkpt lat="43.40868" lon="1.86726">
        <ele>260.51</ele>
        <time>2018-04-08T07:58:49Z</time>
      </trkpt>
      <trkpt lat="43.40877" lon="1.86665">
        <ele>261.41</ele>
        <time>2018-04-08T07:59:03Z</time>
      </trkpt>
      <trkpt lat="43.4089" lon="1.86604">
        <ele>261.79</ele>
        <time>2018-04-08T07:59:18Z</time>
      </trkpt>
      <trkpt lat="43.40891" lon="1.86596">
        <ele>261.71</ele>
        <time>2018-04-08T07:59:20Z</time>
      </trkpt>
      <trkpt lat="43.40899" lon="1.86548">
        <ele>261.61</ele>
        <time>2018-04-08T07:59:31Z</time>
      </trkpt>
      <trkpt lat="43.40906" lon="1.86497">
        <ele>261.03</ele>
        <time>2018-04-08T07:59:43Z</time>
      </trkpt>
      <trkpt lat="43.40917" lon="1.86441">
        <ele>260.22</ele>
        <time>2018-04-08T07:59:56Z</time>
      </trkpt>
      <trkpt lat="43.40926" lon="1.86392">
        <ele>259.61</ele>
        <time>2018-04-08T08:00:07Z</time>
      </trkpt>
      <trkpt lat="43.40932" lon="1.86346">
        <ele>258.23</ele>
        <time>2018-04-08T08:00:17Z</time>
      </trkpt>
      <trkpt lat="43.40941" lon="1.86291">
        <ele>256.36</ele>
        <time>2018-04-08T08:00:29Z</time>
      </trkpt>
      <trkpt lat="43.40951" lon="1.86246">
        <ele>255.56</ele>
        <time>2018-04-08T08:00:40Z</time>
      </trkpt>
      <trkpt lat="43.40957" lon="1.86206">
        <ele>255.15</ele>
        <time>2018-04-08T08:00:49Z</time>
      </trkpt>
      <trkpt lat="43.40968" lon="1.86162">
        <ele>255.38</ele>
        <time>2018-04-08T08:01:00Z</time>
      </trkpt>
      <trkpt lat="43.40981" lon="1.86113">
        <ele>255.14</ele>
        <time>2018-04-08T08:01:11Z</time>
      </trkpt>
      <trkpt lat="43.40995" lon="1.86055">
        <ele>252.99</ele>
        <time>2018-04-08T08:01:24Z</time>
      </trkpt>
      <trkpt lat="43.41006" lon="1.86002">
        <ele>251.67</ele>
        <time>2018-04-08T08:01:36Z</time>
      </trkpt>
      <trkpt lat="43.41023" lon="1.85942">
        <ele>249.9</ele>
        <time>2018-04-08T08:01:49Z</time>
      </trkpt>
      <trkpt lat="43.41036" lon="1.85889">
        <ele>247.84</ele>
        <time>2018-04-08T08:02:01Z</time>
      </trkpt>
      <trkpt lat="43.41043" lon="1.8584">
        <ele>244.68</ele>
        <time>2018-04-08T08:02:11Z</time>
      </trkpt>
      <trkpt lat="43.41041" lon="1.85834">
        <ele>244.08</ele>
        <time>2018-04-08T08:02:13Z</time>
      </trkpt>
      <trkpt lat="43.41039" lon="1.85831">
        <ele>243.73</ele>
        <time>2018-04-08T08:02:14Z</time>
      </trkpt>
      <trkpt lat="43.41037" lon="1.85829">
        <ele>243.33</ele>
        <time>2018-04-08T08:02:15Z</time>
      </trkpt>
      <trkpt lat="43.41019" lon="1.85816">
        <ele>239.79</ele>
        <time>2018-04-08T08:02:21Z</time>
      </trkpt>
      <trkpt lat="43.41001" lon="1.85802">
        <ele>236.71</ele>
        <time>2018-04-08T08:02:27Z</time>
      </trkpt>
      <trkpt lat="43.40987" lon="1.85789">
        <ele>233.35</ele>
        <time>2018-04-08T08:02:32Z</time>
      </trkpt>
      <trkpt lat="43.40948" lon="1.85755">
        <ele>230.85</ele>
        <time>2018-04-08T08:02:47Z</time>
      </trkpt>
      <trkpt lat="43.40917" lon="1.85728">
        <ele>233.66</ele>
        <time>2018-04-08T08:03:01Z</time>
      </trkpt>
      <trkpt lat="43.40892" lon="1.85708">
        <ele>236.55</ele>
        <time>2018-04-08T08:03:13Z</time>
      </trkpt>
      <trkpt lat="43.40868" lon="1.85691">
        <ele>239.75</ele>
        <time>2018-04-08T08:03:25Z</time>
      </trkpt>
      <trkpt lat="43.40835" lon="1.85649">
        <ele>241.28</ele>
        <time>2018-04-08T08:03:42Z</time>
      </trkpt>
      <trkpt lat="43.40808" lon="1.85612">
        <ele>242.72</ele>
        <time>2018-04-08T08:03:57Z</time>
      </trkpt>
      <trkpt lat="43.40789" lon="1.85581">
        <ele>243.55</ele>
        <time>2018-04-08T08:04:09Z</time>
      </trkpt>
      <trkpt lat="43.40784" lon="1.85574">
        <ele>243.8</ele>
        <time>2018-04-08T08:04:12Z</time>
      </trkpt>
      <trkpt lat="43.40769" lon="1.85555">
        <ele>244.17</ele>
        <time>2018-04-08T08:04:20Z</time>
      </trkpt>
      <trkpt lat="43.40742" lon="1.85531">
        <ele>243.75</ele>
        <time>2018-04-08T08:04:32Z</time>
      </trkpt>
      <trkpt lat="43.4073" lon="1.8553">
        <ele>243.12</ele>
        <time>2018-04-08T08:04:38Z</time>
      </trkpt>
      <trkpt lat="43.40727" lon="1.85528">
        <ele>242.95</ele>
        <time>2018-04-08T08:04:39Z</time>
      </trkpt>
      <trkpt lat="43.40725" lon="1.85527">
        <ele>242.88</ele>
        <time>2018-04-08T08:04:40Z</time>
      </trkpt>
      <trkpt lat="43.40723" lon="1.85528">
        <ele>242.83</ele>
        <time>2018-04-08T08:04:41Z</time>
      </trkpt>
      <trkpt lat="43.4072" lon="1.85529">
        <ele>242.79</ele>
        <time>2018-04-08T08:04:42Z</time>
      </trkpt>
      <trkpt lat="43.40718" lon="1.8553">
        <ele>242.76</ele>
        <time>2018-04-08T08:04:43Z</time>
      </trkpt>
      <trkpt lat="43.40696" lon="1.85543">
        <ele>243.47</ele>
        <time>2018-04-08T08:04:53Z</time>
      </trkpt>
      <trkpt lat="43.40675" lon="1.85565">
        <ele>245.28</ele>
        <time>2018-04-08T08:05:04Z</time>
      </trkpt>
      <trkpt lat="43.40673" lon="1.85568">
        <ele>245.44</ele>
        <time>2018-04-08T08:05:05Z</time>
      </trkpt>
      <trkpt lat="43.40668" lon="1.85572">
        <ele>245.78</ele>
        <time>2018-04-08T08:05:07Z</time>
      </trkpt>
      <trkpt lat="43.40666" lon="1.85575">
        <ele>245.87</ele>
        <time>2018-04-08T08:05:08Z</time>
      </trkpt>
      <trkpt lat="43.40663" lon="1.85577">
        <ele>245.96</ele>
        <time>2018-04-08T08:05:09Z</time>
      </trkpt>
      <trkpt lat="43.40661" lon="1.85579">
        <ele>246.04</ele>
        <time>2018-04-08T08:05:10Z</time>
      </trkpt>
      <trkpt lat="43.40659" lon="1.85582">
        <ele>246.1</ele>
        <time>2018-04-08T08:05:11Z</time>
      </trkpt>
      <trkpt lat="43.40656" lon="1.85585">
        <ele>246.16</ele>
        <time>2018-04-08T08:05:12Z</time>
      </trkpt>
      <trkpt lat="43.40654" lon="1.85587">
        <ele>246.21</ele>
        <time>2018-04-08T08:05:13Z</time>
      </trkpt>
      <trkpt lat="43.40631" lon="1.85613">
        <ele>247.1</ele>
        <time>2018-04-08T08:05:24Z</time>
      </trkpt>
      <trkpt lat="43.40606" lon="1.85646">
        <ele>248.18</ele>
        <time>2018-04-08T08:05:37Z</time>
      </trkpt>
      <trkpt lat="43.40581" lon="1.85688">
        <ele>247.92</ele>
        <time>2018-04-08T08:05:50Z</time>
      </trkpt>
      <trkpt lat="43.40564" lon="1.85743">
        <ele>246.94</ele>
        <time>2018-04-08T08:06:05Z</time>
      </trkpt>
      <trkpt lat="43.40552" lon="1.85791">
        <ele>246.26</ele>
        <time>2018-04-08T08:06:19Z</time>
      </trkpt>
      <trkpt lat="43.40542" lon="1.85829">
        <ele>246.56</ele>
        <time>2018-04-08T08:06:30Z</time>
      </trkpt>
      <trkpt lat="43.40527" lon="1.85876">
        <ele>247.19</ele>
        <time>2018-04-08T08:06:44Z</time>
      </trkpt>
      <trkpt lat="43.40516" lon="1.85912">
        <ele>248.77</ele>
        <time>2018-04-08T08:06:55Z</time>
      </trkpt>
      <trkpt lat="43.40506" lon="1.85953">
        <ele>249.9</ele>
        <time>2018-04-08T08:07:07Z</time>
      </trkpt>
      <trkpt lat="43.40495" lon="1.86003">
        <ele>250.89</ele>
        <time>2018-04-08T08:07:22Z</time>
      </trkpt>
      <trkpt lat="43.40486" lon="1.8605">
        <ele>252.35</ele>
        <time>2018-04-08T08:07:36Z</time>
      </trkpt>
      <trkpt lat="43.4048" lon="1.86093">
        <ele>252.9</ele>
        <time>2018-04-08T08:07:48Z</time>
      </trkpt>
      <trkpt lat="43.40472" lon="1.86145">
        <ele>252.45</ele>
        <time>2018-04-08T08:08:02Z</time>
      </trkpt>
      <trkpt lat="43.40453" lon="1.86184">
        <ele>252.2</ele>
        <time>2018-04-08T08:08:14Z</time>
      </trkpt>
      <trkpt lat="43.4043" lon="1.86222">
        <ele>252.31</ele>
        <time>2018-04-08T08:08:28Z</time>
      </trkpt>
      <trkpt lat="43.40403" lon="1.86254">
        <ele>252.72</ele>
        <time>2018-04-08T08:08:42Z</time>
      </trkpt>
      <trkpt lat="43.40383" lon="1.86288">
        <ele>253.72</ele>
        <time>2018-04-08T08:08:55Z</time>
      </trkpt>
      <trkpt lat="43.40365" lon="1.86324">
        <ele>255.15</ele>
        <time>2018-04-08T08:09:08Z</time>
      </trkpt>
      <trkpt lat="43.4035" lon="1.86364">
        <ele>255.99</ele>
        <time>2018-04-08T08:09:21Z</time>
      </trkpt>
      <trkpt lat="43.4034" lon="1.86402">
        <ele>256.19</ele>
        <time>2018-04-08T08:09:34Z</time>
      </trkpt>
      <trkpt lat="43.4034" lon="1.86408">
        <ele>256.41</ele>
        <time>2018-04-08T08:09:36Z</time>
      </trkpt>
      <trkpt lat="43.4034" lon="1.86411">
        <ele>256.51</ele>
        <time>2018-04-08T08:09:37Z</time>
      </trkpt>
      <trkpt lat="43.4034" lon="1.86413">
        <ele>256.58</ele>
        <time>2018-04-08T08:09:38Z</time>
      </trkpt>
      <trkpt lat="43.40355" lon="1.8646">
        <ele>256.26</ele>
        <time>2018-04-08T08:09:51Z</time>
      </trkpt>
      <trkpt lat="43.40359" lon="1.86475">
        <ele>256.13</ele>
        <time>2018-04-08T08:09:56Z</time>
      </trkpt>
      <trkpt lat="43.40361" lon="1.86497">
        <ele>255.36</ele>
        <time>2018-04-08T08:10:02Z</time>
      </trkpt>
      <trkpt lat="43.40365" lon="1.86549">
        <ele>251.97</ele>
        <time>2018-04-08T08:10:14Z</time>
      </trkpt>
      <trkpt lat="43.40381" lon="1.86607">
        <ele>249.01</ele>
        <time>2018-04-08T08:10:29Z</time>
      </trkpt>
      <trkpt lat="43.40401" lon="1.86641">
        <ele>249.81</ele>
        <time>2018-04-08T08:10:41Z</time>
      </trkpt>
      <trkpt lat="43.40407" lon="1.86657">
        <ele>250.4</ele>
        <time>2018-04-08T08:10:47Z</time>
      </trkpt>
      <trkpt lat="43.40409" lon="1.86659">
        <ele>250.49</ele>
        <time>2018-04-08T08:10:48Z</time>
      </trkpt>
      <trkpt lat="43.4041" lon="1.86662">
        <ele>250.57</ele>
        <time>2018-04-08T08:10:49Z</time>
      </trkpt>
      <trkpt lat="43.4043" lon="1.86697">
        <ele>252.6</ele>
        <time>2018-04-08T08:11:04Z</time>
      </trkpt>
      <trkpt lat="43.40437" lon="1.8673">
        <ele>255.69</ele>
        <time>2018-04-08T08:11:16Z</time>
      </trkpt>
      <trkpt lat="43.4044" lon="1.86748">
        <ele>257.4</ele>
        <time>2018-04-08T08:11:23Z</time>
      </trkpt>
      <trkpt lat="43.40441" lon="1.8675">
        <ele>257.65</ele>
        <time>2018-04-08T08:11:24Z</time>
      </trkpt>
      <trkpt lat="43.40441" lon="1.86753">
        <ele>257.9</ele>
        <time>2018-04-08T08:11:25Z</time>
      </trkpt>
      <trkpt lat="43.40442" lon="1.86758">
        <ele>258.35</ele>
        <time>2018-04-08T08:11:27Z</time>
      </trkpt>
      <trkpt lat="43.40443" lon="1.8676">
        <ele>258.57</ele>
        <time>2018-04-08T08:11:28Z</time>
      </trkpt>
      <trkpt lat="43.40443" lon="1.86762">
        <ele>258.77</ele>
        <time>2018-04-08T08:11:29Z</time>
      </trkpt>
      <trkpt lat="43.40444" lon="1.86765">
        <ele>258.96</ele>
        <time>2018-04-08T08:11:30Z</time>
      </trkpt>
      <trkpt lat="43.40444" lon="1.86767">
        <ele>259.35</ele>
        <time>2018-04-08T08:11:31Z</time>
      </trkpt>
      <trkpt lat="43.40445" lon="1.86769">
        <ele>259.57</ele>
        <time>2018-04-08T08:11:32Z</time>
      </trkpt>
      <trkpt lat="43.40458" lon="1.86804">
        <ele>262.59</ele>
        <time>2018-04-08T08:11:46Z</time>
      </trkpt>
      <trkpt lat="43.40467" lon="1.86824">
        <ele>263.64</ele>
        <time>2018-04-08T08:11:54Z</time>
      </trkpt>
      <trkpt lat="43.40493" lon="1.86853">
        <ele>265.74</ele>
        <time>2018-04-08T08:12:09Z</time>
      </trkpt>
      <trkpt lat="43.40518" lon="1.86881">
        <ele>268.76</ele>
        <time>2018-04-08T08:12:26Z</time>
      </trkpt>
      <trkpt lat="43.40537" lon="1.86901">
        <ele>271.43</ele>
        <time>2018-04-08T08:12:39Z</time>
      </trkpt>
      <trkpt lat="43.40552" lon="1.86938">
        <ele>273.95</ele>
        <time>2018-04-08T08:12:54Z</time>
      </trkpt>
      <trkpt lat="43.40564" lon="1.86981">
        <ele>275.29</ele>
        <time>2018-04-08T08:13:08Z</time>
      </trkpt>
      <trkpt lat="43.40579" lon="1.87023">
        <ele>275.89</ele>
        <time>2018-04-08T08:13:22Z</time>
      </trkpt>
      <trkpt lat="43.40599" lon="1.87063">
        <ele>275</ele>
        <time>2018-04-08T08:13:35Z</time>
      </trkpt>
      <trkpt lat="43.40618" lon="1.87117">
        <ele>274.54</ele>
        <time>2018-04-08T08:13:50Z</time>
      </trkpt>
      <trkpt lat="43.40601" lon="1.8714">
        <ele>274.02</ele>
        <time>2018-04-08T08:13:59Z</time>
      </trkpt>
      <trkpt lat="43.40579" lon="1.87161">
        <ele>274.62</ele>
        <time>2018-04-08T08:14:11Z</time>
      </trkpt>
      <trkpt lat="43.40556" lon="1.87189">
        <ele>275.68</ele>
        <time>2018-04-08T08:14:23Z</time>
      </trkpt>
      <trkpt lat="43.40527" lon="1.87212">
        <ele>276.49</ele>
        <time>2018-04-08T08:14:37Z</time>
      </trkpt>
      <trkpt lat="43.40498" lon="1.87233">
        <ele>277.44</ele>
        <time>2018-04-08T08:14:51Z</time>
      </trkpt>
      <trkpt lat="43.40476" lon="1.87253">
        <ele>278.47</ele>
        <time>2018-04-08T08:15:02Z</time>
      </trkpt>
      <trkpt lat="43.40451" lon="1.87283">
        <ele>279.24</ele>
        <time>2018-04-08T08:15:14Z</time>
      </trkpt>
      <trkpt lat="43.40444" lon="1.87288">
        <ele>279.36</ele>
        <time>2018-04-08T08:15:17Z</time>
      </trkpt>
      <trkpt lat="43.40425" lon="1.87272">
        <ele>279.92</ele>
        <time>2018-04-08T08:15:26Z</time>
      </trkpt>
      <trkpt lat="43.40419" lon="1.87265">
        <ele>280.32</ele>
        <time>2018-04-08T08:15:29Z</time>
      </trkpt>
      <trkpt lat="43.40383" lon="1.87231">
        <ele>279.51</ele>
        <time>2018-04-08T08:15:44Z</time>
      </trkpt>
      <trkpt lat="43.40347" lon="1.87208">
        <ele>278.11</ele>
        <time>2018-04-08T08:15:58Z</time>
      </trkpt>
      <trkpt lat="43.40345" lon="1.87191">
        <ele>277.97</ele>
        <time>2018-04-08T08:16:02Z</time>
      </trkpt>
      <trkpt lat="43.4033" lon="1.87168">
        <ele>276.72</ele>
        <time>2018-04-08T08:16:10Z</time>
      </trkpt>
      <trkpt lat="43.40293" lon="1.87166">
        <ele>274.68</ele>
        <time>2018-04-08T08:16:22Z</time>
      </trkpt>
      <trkpt lat="43.40261" lon="1.8715">
        <ele>274.4</ele>
        <time>2018-04-08T08:16:34Z</time>
      </trkpt>
      <trkpt lat="43.40226" lon="1.87134">
        <ele>273.56</ele>
        <time>2018-04-08T08:16:48Z</time>
      </trkpt>
      <trkpt lat="43.40194" lon="1.87123">
        <ele>274.86</ele>
        <time>2018-04-08T08:17:03Z</time>
      </trkpt>
      <trkpt lat="43.40169" lon="1.87148">
        <ele>276.03</ele>
        <time>2018-04-08T08:17:16Z</time>
      </trkpt>
      <trkpt lat="43.40137" lon="1.87171">
        <ele>275.92</ele>
        <time>2018-04-08T08:17:29Z</time>
      </trkpt>
      <trkpt lat="43.40107" lon="1.87174">
        <ele>274.91</ele>
        <time>2018-04-08T08:17:39Z</time>
      </trkpt>
      <trkpt lat="43.40092" lon="1.87136">
        <ele>273.7</ele>
        <time>2018-04-08T08:17:51Z</time>
      </trkpt>
      <trkpt lat="43.40116" lon="1.8709">
        <ele>270.94</ele>
        <time>2018-04-08T08:18:05Z</time>
      </trkpt>
      <trkpt lat="43.40145" lon="1.87042">
        <ele>269.07</ele>
        <time>2018-04-08T08:18:20Z</time>
      </trkpt>
      <trkpt lat="43.40172" lon="1.86996">
        <ele>267.22</ele>
        <time>2018-04-08T08:18:35Z</time>
      </trkpt>
      <trkpt lat="43.40197" lon="1.86953">
        <ele>266.55</ele>
        <time>2018-04-08T08:18:49Z</time>
      </trkpt>
      <trkpt lat="43.40204" lon="1.86935">
        <ele>266.53</ele>
        <time>2018-04-08T08:18:55Z</time>
      </trkpt>
      <trkpt lat="43.40203" lon="1.86932">
        <ele>266.55</ele>
        <time>2018-04-08T08:18:56Z</time>
      </trkpt>
      <trkpt lat="43.40201" lon="1.86929">
        <ele>266.52</ele>
        <time>2018-04-08T08:18:57Z</time>
      </trkpt>
      <trkpt lat="43.40199" lon="1.86927">
        <ele>266.32</ele>
        <time>2018-04-08T08:18:58Z</time>
      </trkpt>
      <trkpt lat="43.40196" lon="1.86925">
        <ele>266.06</ele>
        <time>2018-04-08T08:18:59Z</time>
      </trkpt>
      <trkpt lat="43.40165" lon="1.86886">
        <ele>264.61</ele>
        <time>2018-04-08T08:19:14Z</time>
      </trkpt>
      <trkpt lat="43.40129" lon="1.86835">
        <ele>266.04</ele>
        <time>2018-04-08T08:19:33Z</time>
      </trkpt>
      <trkpt lat="43.40099" lon="1.86789">
        <ele>265</ele>
        <time>2018-04-08T08:19:48Z</time>
      </trkpt>
      <trkpt lat="43.40068" lon="1.86747">
        <ele>264.82</ele>
        <time>2018-04-08T08:20:03Z</time>
      </trkpt>
      <trkpt lat="43.40036" lon="1.86703">
        <ele>265.15</ele>
        <time>2018-04-08T08:20:19Z</time>
      </trkpt>
      <trkpt lat="43.40005" lon="1.86664">
        <ele>266.68</ele>
        <time>2018-04-08T08:20:35Z</time>
      </trkpt>
      <trkpt lat="43.39974" lon="1.86629">
        <ele>269.57</ele>
        <time>2018-04-08T08:20:51Z</time>
      </trkpt>
      <trkpt lat="43.39941" lon="1.86586">
        <ele>267.09</ele>
        <time>2018-04-08T08:21:06Z</time>
      </trkpt>
      <trkpt lat="43.39904" lon="1.86549">
        <ele>266.03</ele>
        <time>2018-04-08T08:21:21Z</time>
      </trkpt>
      <trkpt lat="43.399" lon="1.86544">
        <ele>265.9</ele>
        <time>2018-04-08T08:21:23Z</time>
      </trkpt>
      <trkpt lat="43.39871" lon="1.86517">
        <ele>265.15</ele>
        <time>2018-04-08T08:21:35Z</time>
      </trkpt>
      <trkpt lat="43.39844" lon="1.86499">
        <ele>264.73</ele>
        <time>2018-04-08T08:21:46Z</time>
      </trkpt>
      <trkpt lat="43.39812" lon="1.86472">
        <ele>264.67</ele>
        <time>2018-04-08T08:21:58Z</time>
      </trkpt>
      <trkpt lat="43.39787" lon="1.86444">
        <ele>264.87</ele>
        <time>2018-04-08T08:22:10Z</time>
      </trkpt>
      <trkpt lat="43.39766" lon="1.8643">
        <ele>265.1</ele>
        <time>2018-04-08T08:22:19Z</time>
      </trkpt>
      <trkpt lat="43.39764" lon="1.86432">
        <ele>265.11</ele>
        <time>2018-04-08T08:22:20Z</time>
      </trkpt>
      <trkpt lat="43.39762" lon="1.86435">
        <ele>265.14</ele>
        <time>2018-04-08T08:22:21Z</time>
      </trkpt>
      <trkpt lat="43.3976" lon="1.86444">
        <ele>265.23</ele>
        <time>2018-04-08T08:22:24Z</time>
      </trkpt>
      <trkpt lat="43.39759" lon="1.86448">
        <ele>265.23</ele>
        <time>2018-04-08T08:22:25Z</time>
      </trkpt>
      <trkpt lat="43.39747" lon="1.86469">
        <ele>263.61</ele>
        <time>2018-04-08T08:22:32Z</time>
      </trkpt>
      <trkpt lat="43.39734" lon="1.86477">
        <ele>259.96</ele>
        <time>2018-04-08T08:22:39Z</time>
      </trkpt>
      <trkpt lat="43.39732" lon="1.86479">
        <ele>259.07</ele>
        <time>2018-04-08T08:22:41Z</time>
      </trkpt>
      <trkpt lat="43.39718" lon="1.86495">
        <ele>255.39</ele>
        <time>2018-04-08T08:22:48Z</time>
      </trkpt>
      <trkpt lat="43.39703" lon="1.8651">
        <ele>252.79</ele>
        <time>2018-04-08T08:22:54Z</time>
      </trkpt>
      <trkpt lat="43.39682" lon="1.86539">
        <ele>249.48</ele>
        <time>2018-04-08T08:23:03Z</time>
      </trkpt>
      <trkpt lat="43.39653" lon="1.86589">
        <ele>246.33</ele>
        <time>2018-04-08T08:23:14Z</time>
      </trkpt>
      <trkpt lat="43.39638" lon="1.86628">
        <ele>243.15</ele>
        <time>2018-04-08T08:23:23Z</time>
      </trkpt>
      <trkpt lat="43.39626" lon="1.86656">
        <ele>240.15</ele>
        <time>2018-04-08T08:23:30Z</time>
      </trkpt>
      <trkpt lat="43.39615" lon="1.86673">
        <ele>237.1</ele>
        <time>2018-04-08T08:23:35Z</time>
      </trkpt>
      <trkpt lat="43.39597" lon="1.86703">
        <ele>233.91</ele>
        <time>2018-04-08T08:23:44Z</time>
      </trkpt>
      <trkpt lat="43.39589" lon="1.86747">
        <ele>230.78</ele>
        <time>2018-04-08T08:23:52Z</time>
      </trkpt>
      <trkpt lat="43.39585" lon="1.86788">
        <ele>227.76</ele>
        <time>2018-04-08T08:24:00Z</time>
      </trkpt>
      <trkpt lat="43.39577" lon="1.86851">
        <ele>224.52</ele>
        <time>2018-04-08T08:24:12Z</time>
      </trkpt>
      <trkpt lat="43.39562" lon="1.8691">
        <ele>221.33</ele>
        <time>2018-04-08T08:24:25Z</time>
      </trkpt>
      <trkpt lat="43.39536" lon="1.86961">
        <ele>218.31</ele>
        <time>2018-04-08T08:24:38Z</time>
      </trkpt>
      <trkpt lat="43.39518" lon="1.86999">
        <ele>216.01</ele>
        <time>2018-04-08T08:24:49Z</time>
      </trkpt>
      <trkpt lat="43.39496" lon="1.8704">
        <ele>213.91</ele>
        <time>2018-04-08T08:25:01Z</time>
      </trkpt>
      <trkpt lat="43.39481" lon="1.87085">
        <ele>212.31</ele>
        <time>2018-04-08T08:25:12Z</time>
      </trkpt>
      <trkpt lat="43.39482" lon="1.87089">
        <ele>211.99</ele>
        <time>2018-04-08T08:25:13Z</time>
      </trkpt>
      <trkpt lat="43.39499" lon="1.87129">
        <ele>211.2</ele>
        <time>2018-04-08T08:25:25Z</time>
      </trkpt>
      <trkpt lat="43.39517" lon="1.87167">
        <ele>212.86</ele>
        <time>2018-04-08T08:25:37Z</time>
      </trkpt>
      <trkpt lat="43.39539" lon="1.87197">
        <ele>213.23</ele>
        <time>2018-04-08T08:25:48Z</time>
      </trkpt>
      <trkpt lat="43.39583" lon="1.87227">
        <ele>212.32</ele>
        <time>2018-04-08T08:26:03Z</time>
      </trkpt>
      <trkpt lat="43.39598" lon="1.87236">
        <ele>211.75</ele>
        <time>2018-04-08T08:26:08Z</time>
      </trkpt>
      <trkpt lat="43.39624" lon="1.87252">
        <ele>209.81</ele>
        <time>2018-04-08T08:26:17Z</time>
      </trkpt>
      <trkpt lat="43.39656" lon="1.87283">
        <ele>206.68</ele>
        <time>2018-04-08T08:26:29Z</time>
      </trkpt>
      <trkpt lat="43.39681" lon="1.87312">
        <ele>203.62</ele>
        <time>2018-04-08T08:26:39Z</time>
      </trkpt>
      <trkpt lat="43.39714" lon="1.87343">
        <ele>201.64</ele>
        <time>2018-04-08T08:26:52Z</time>
      </trkpt>
      <trkpt lat="43.39717" lon="1.8735">
        <ele>201.46</ele>
        <time>2018-04-08T08:26:54Z</time>
      </trkpt>
      <trkpt lat="43.39718" lon="1.87354">
        <ele>201.39</ele>
        <time>2018-04-08T08:26:55Z</time>
      </trkpt>
      <trkpt lat="43.39718" lon="1.87358">
        <ele>201.32</ele>
        <time>2018-04-08T08:26:56Z</time>
      </trkpt>
      <trkpt lat="43.39718" lon="1.87362">
        <ele>201.28</ele>
        <time>2018-04-08T08:26:57Z</time>
      </trkpt>
      <trkpt lat="43.39718" lon="1.87366">
        <ele>201.26</ele>
        <time>2018-04-08T08:26:58Z</time>
      </trkpt>
      <trkpt lat="43.39718" lon="1.8737">
        <ele>201.25</ele>
        <time>2018-04-08T08:26:59Z</time>
      </trkpt>
      <trkpt lat="43.3972" lon="1.87373">
        <ele>201.24</ele>
        <time>2018-04-08T08:27:00Z</time>
      </trkpt>
      <trkpt lat="43.39722" lon="1.87376">
        <ele>201.27</ele>
        <time>2018-04-08T08:27:01Z</time>
      </trkpt>
      <trkpt lat="43.39724" lon="1.87379">
        <ele>201.27</ele>
        <time>2018-04-08T08:27:02Z</time>
      </trkpt>
      <trkpt lat="43.39759" lon="1.87418">
        <ele>202.32</ele>
        <time>2018-04-08T08:27:18Z</time>
      </trkpt>
      <trkpt lat="43.39791" lon="1.87442">
        <ele>203.02</ele>
        <time>2018-04-08T08:27:30Z</time>
      </trkpt>
      <trkpt lat="43.39819" lon="1.87462">
        <ele>201.56</ele>
        <time>2018-04-08T08:27:41Z</time>
      </trkpt>
      <trkpt lat="43.39846" lon="1.87496">
        <ele>200.5</ele>
        <time>2018-04-08T08:27:53Z</time>
      </trkpt>
      <trkpt lat="43.39875" lon="1.87507">
        <ele>199.92</ele>
        <time>2018-04-08T08:28:04Z</time>
      </trkpt>
      <trkpt lat="43.3991" lon="1.87506">
        <ele>199.63</ele>
        <time>2018-04-08T08:28:17Z</time>
      </trkpt>
      <trkpt lat="43.39926" lon="1.87507">
        <ele>199.77</ele>
        <time>2018-04-08T08:28:24Z</time>
      </trkpt>
      <trkpt lat="43.39927" lon="1.87509">
        <ele>199.82</ele>
        <time>2018-04-08T08:28:25Z</time>
      </trkpt>
      <trkpt lat="43.39946" lon="1.87535">
        <ele>199.91</ele>
        <time>2018-04-08T08:28:34Z</time>
      </trkpt>
      <trkpt lat="43.39948" lon="1.87537">
        <ele>199.91</ele>
        <time>2018-04-08T08:28:35Z</time>
      </trkpt>
      <trkpt lat="43.3995" lon="1.87541">
        <ele>199.91</ele>
        <time>2018-04-08T08:28:36Z</time>
      </trkpt>
      <trkpt lat="43.39955" lon="1.87553">
        <ele>199.98</ele>
        <time>2018-04-08T08:28:39Z</time>
      </trkpt>
      <trkpt lat="43.39956" lon="1.87556">
        <ele>200</ele>
        <time>2018-04-08T08:28:40Z</time>
      </trkpt>
      <trkpt lat="43.39957" lon="1.8756">
        <ele>199.98</ele>
        <time>2018-04-08T08:28:41Z</time>
      </trkpt>
      <trkpt lat="43.39958" lon="1.87563">
        <ele>199.93</ele>
        <time>2018-04-08T08:28:42Z</time>
      </trkpt>
      <trkpt lat="43.39958" lon="1.87566">
        <ele>199.9</ele>
        <time>2018-04-08T08:28:43Z</time>
      </trkpt>
      <trkpt lat="43.39958" lon="1.87569">
        <ele>199.87</ele>
        <time>2018-04-08T08:28:44Z</time>
      </trkpt>
      <trkpt lat="43.3996" lon="1.87572">
        <ele>199.84</ele>
        <time>2018-04-08T08:28:45Z</time>
      </trkpt>
      <trkpt lat="43.39961" lon="1.87575">
        <ele>199.81</ele>
        <time>2018-04-08T08:28:46Z</time>
      </trkpt>
      <trkpt lat="43.39962" lon="1.87578">
        <ele>199.79</ele>
        <time>2018-04-08T08:28:47Z</time>
      </trkpt>
      <trkpt lat="43.39964" lon="1.8758">
        <ele>199.78</ele>
        <time>2018-04-08T08:28:48Z</time>
      </trkpt>
      <trkpt lat="43.39965" lon="1.87583">
        <ele>199.78</ele>
        <time>2018-04-08T08:28:49Z</time>
      </trkpt>
      <trkpt lat="43.39967" lon="1.87586">
        <ele>199.77</ele>
        <time>2018-04-08T08:28:50Z</time>
      </trkpt>
      <trkpt lat="43.39967" lon="1.87589">
        <ele>199.77</ele>
        <time>2018-04-08T08:28:51Z</time>
      </trkpt>
      <trkpt lat="43.39968" lon="1.87592">
        <ele>199.77</ele>
        <time>2018-04-08T08:28:52Z</time>
      </trkpt>
      <trkpt lat="43.39968" lon="1.87595">
        <ele>199.77</ele>
        <time>2018-04-08T08:28:53Z</time>
      </trkpt>
      <trkpt lat="43.39969" lon="1.87598">
        <ele>199.77</ele>
        <time>2018-04-08T08:28:54Z</time>
      </trkpt>
      <trkpt lat="43.39971" lon="1.87602">
        <ele>199.77</ele>
        <time>2018-04-08T08:28:55Z</time>
      </trkpt>
      <trkpt lat="43.39973" lon="1.87606">
        <ele>199.75</ele>
        <time>2018-04-08T08:28:56Z</time>
      </trkpt>
      <trkpt lat="43.39973" lon="1.87609">
        <ele>199.71</ele>
        <time>2018-04-08T08:28:57Z</time>
      </trkpt>
      <trkpt lat="43.39974" lon="1.87613">
        <ele>199.68</ele>
        <time>2018-04-08T08:28:58Z</time>
      </trkpt>
      <trkpt lat="43.39976" lon="1.87629">
        <ele>199.51</ele>
        <time>2018-04-08T08:29:02Z</time>
      </trkpt>
      <trkpt lat="43.39978" lon="1.87632">
        <ele>199.49</ele>
        <time>2018-04-08T08:29:03Z</time>
      </trkpt>
      <trkpt lat="43.39979" lon="1.87635">
        <ele>199.47</ele>
        <time>2018-04-08T08:29:04Z</time>
      </trkpt>
      <trkpt lat="43.3998" lon="1.87638">
        <ele>199.44</ele>
        <time>2018-04-08T08:29:05Z</time>
      </trkpt>
      <trkpt lat="43.39982" lon="1.8764">
        <ele>199.43</ele>
        <time>2018-04-08T08:29:06Z</time>
      </trkpt>
      <trkpt lat="43.39984" lon="1.87643">
        <ele>199.43</ele>
        <time>2018-04-08T08:29:07Z</time>
      </trkpt>
      <trkpt lat="43.40012" lon="1.87664">
        <ele>199.68</ele>
        <time>2018-04-08T08:29:18Z</time>
      </trkpt>
      <trkpt lat="43.40017" lon="1.87667">
        <ele>199.74</ele>
        <time>2018-04-08T08:29:20Z</time>
      </trkpt>
      <trkpt lat="43.4002" lon="1.87669">
        <ele>199.75</ele>
        <time>2018-04-08T08:29:21Z</time>
      </trkpt>
      <trkpt lat="43.40023" lon="1.8767">
        <ele>199.76</ele>
        <time>2018-04-08T08:29:22Z</time>
      </trkpt>
      <trkpt lat="43.40024" lon="1.8767">
        <ele>199.75</ele>
        <time>2018-04-08T08:29:23Z</time>
      </trkpt>
      <trkpt lat="43.40028" lon="1.87669">
        <ele>199.75</ele>
        <time>2018-04-08T08:29:24Z</time>
      </trkpt>
      <trkpt lat="43.40055" lon="1.87656">
        <ele>200.41</ele>
        <time>2018-04-08T08:29:35Z</time>
      </trkpt>
      <trkpt lat="43.40066" lon="1.87664">
        <ele>200.91</ele>
        <time>2018-04-08T08:29:40Z</time>
      </trkpt>
      <trkpt lat="43.4007" lon="1.87667">
        <ele>201.03</ele>
        <time>2018-04-08T08:29:42Z</time>
      </trkpt>
      <trkpt lat="43.40072" lon="1.87669">
        <ele>201.15</ele>
        <time>2018-04-08T08:29:43Z</time>
      </trkpt>
      <trkpt lat="43.40075" lon="1.87671">
        <ele>201.25</ele>
        <time>2018-04-08T08:29:44Z</time>
      </trkpt>
      <trkpt lat="43.40077" lon="1.87672">
        <ele>201.5</ele>
        <time>2018-04-08T08:29:45Z</time>
      </trkpt>
      <trkpt lat="43.40079" lon="1.87674">
        <ele>201.67</ele>
        <time>2018-04-08T08:29:46Z</time>
      </trkpt>
      <trkpt lat="43.40082" lon="1.87675">
        <ele>201.83</ele>
        <time>2018-04-08T08:29:47Z</time>
      </trkpt>
      <trkpt lat="43.40102" lon="1.87688">
        <ele>203.88</ele>
        <time>2018-04-08T08:29:57Z</time>
      </trkpt>
      <trkpt lat="43.40114" lon="1.87686">
        <ele>205.16</ele>
        <time>2018-04-08T08:30:03Z</time>
      </trkpt>
      <trkpt lat="43.40143" lon="1.87671">
        <ele>206.76</ele>
        <time>2018-04-08T08:30:16Z</time>
      </trkpt>
      <trkpt lat="43.40145" lon="1.87668">
        <ele>206.88</ele>
        <time>2018-04-08T08:30:17Z</time>
      </trkpt>
      <trkpt lat="43.40146" lon="1.87666">
        <ele>207</ele>
        <time>2018-04-08T08:30:18Z</time>
      </trkpt>
      <trkpt lat="43.40148" lon="1.87664">
        <ele>207.1</ele>
        <time>2018-04-08T08:30:19Z</time>
      </trkpt>
      <trkpt lat="43.4015" lon="1.87662">
        <ele>207.18</ele>
        <time>2018-04-08T08:30:20Z</time>
      </trkpt>
      <trkpt lat="43.40176" lon="1.87633">
        <ele>207.37</ele>
        <time>2018-04-08T08:30:32Z</time>
      </trkpt>
      <trkpt lat="43.40202" lon="1.87604">
        <ele>206.97</ele>
        <time>2018-04-08T08:30:45Z</time>
      </trkpt>
      <trkpt lat="43.40223" lon="1.87578">
        <ele>207.66</ele>
        <time>2018-04-08T08:30:57Z</time>
      </trkpt>
      <trkpt lat="43.40247" lon="1.87582">
        <ele>208.34</ele>
        <time>2018-04-08T08:31:07Z</time>
      </trkpt>
      <trkpt lat="43.40281" lon="1.87598">
        <ele>208.44</ele>
        <time>2018-04-08T08:31:19Z</time>
      </trkpt>
      <trkpt lat="43.40312" lon="1.87611">
        <ele>207.79</ele>
        <time>2018-04-08T08:31:30Z</time>
      </trkpt>
      <trkpt lat="43.40315" lon="1.87612">
        <ele>207.75</ele>
        <time>2018-04-08T08:31:31Z</time>
      </trkpt>
      <trkpt lat="43.40354" lon="1.87624">
        <ele>208</ele>
        <time>2018-04-08T08:31:44Z</time>
      </trkpt>
      <trkpt lat="43.40391" lon="1.87643">
        <ele>209.14</ele>
        <time>2018-04-08T08:31:57Z</time>
      </trkpt>
      <trkpt lat="43.40422" lon="1.8767">
        <ele>210.43</ele>
        <time>2018-04-08T08:32:10Z</time>
      </trkpt>
      <trkpt lat="43.40454" lon="1.87689">
        <ele>212.09</ele>
        <time>2018-04-08T08:32:23Z</time>
      </trkpt>
      <trkpt lat="43.40479" lon="1.87695">
        <ele>213.67</ele>
        <time>2018-04-08T08:32:33Z</time>
      </trkpt>
      <trkpt lat="43.40511" lon="1.87698">
        <ele>216.36</ele>
        <time>2018-04-08T08:32:45Z</time>
      </trkpt>
      <trkpt lat="43.40546" lon="1.87706">
        <ele>217.32</ele>
        <time>2018-04-08T08:32:58Z</time>
      </trkpt>
      <trkpt lat="43.40554" lon="1.87709">
        <ele>218.68</ele>
        <time>2018-04-08T08:33:10Z</time>
      </trkpt>
      <trkpt lat="43.40563" lon="1.87715">
        <ele>219.41</ele>
        <time>2018-04-08T08:33:35Z</time>
      </trkpt>
      <trkpt lat="43.40569" lon="1.8772">
        <ele>220.69</ele>
        <time>2018-04-08T08:33:52Z</time>
      </trkpt>
      <trkpt lat="43.40569" lon="1.8772">
        <ele>221.01</ele>
        <time>2018-04-08T08:33:55Z</time>
      </trkpt>
    </trkseg>
  </trk>
</gpx>